sensor_id;sensor_type;location;lat;lon;timestamp;P1;P2;P0
50866;PMS7003;36839;51.946;21.002;2023-02-12T00:01:23;1.00;1.00;1.00
50866;PMS7003;36839;51.946;21.002;2023-02-12T00:03:51;3.00;1.50;1.00
50866;PMS7003;36839;51.946;21.002;2023-02-12T00:06:18;1.00;1.00;1.00
50866;PMS7003;36839;51.946;21.002;2023-02-12T00:08:47;3.00;1.00;1.00
50866;PMS7003;36839;51.946;21.002;2023-02-12T00:11:20;2.00;2.00;1.00
50866;PMS7003;36839;51.946;21.002;2023-02-12T00:13:48;0.00;0.00;0.00
50866;PMS7003;36839;51.946;21.002;2023-02-12T00:16:17;1.00;1.00;1.00
50866;PMS7003;36839;51.946;21.002;2023-02-12T00:18:46;2.50;0.00;0.00
50866;PMS7003;36839;51.946;21.002;2023-02-12T00:21:19;1.00;1.00;1.00
50866;PMS7003;36839;51.946;21.002;2023-02-12T00:23:56;2.50;2.50;2.00
50866;PMS7003;36839;51.946;21.002;2023-02-12T00:26:24;1.50;1.50;1.50
50866;PMS7003;36839;51.946;21.002;2023-02-12T00:28:52;6.00;5.00;3.00
50866;PMS7003;36839;51.946;21.002;2023-02-12T00:31:21;5.00;3.00;3.00
50866;PMS7003;36839;51.946;21.002;2023-02-12T00:33:50;7.00;7.00;5.00
50866;PMS7003;36839;51.946;21.002;2023-02-12T00:36:18;5.00;3.00;2.00
50866;PMS7003;36839;51.946;21.002;2023-02-12T00:38:53;3.00;1.50;1.50
50866;PMS7003;36839;51.946;21.002;2023-02-12T00:41:21;4.50;4.00;3.00
50866;PMS7003;36839;51.946;21.002;2023-02-12T00:43:50;5.50;3.00;2.50
50866;PMS7003;36839;51.946;21.002;2023-02-12T00:46:18;3.50;2.00;1.50
50866;PMS7003;36839;51.946;21.002;2023-02-12T00:48:45;2.00;2.00;1.00
50866;PMS7003;36839;51.946;21.002;2023-02-12T00:51:13;2.00;2.00;2.00
50866;PMS7003;36839;51.946;21.002;2023-02-12T00:53:40;5.00;5.00;3.00
50866;PMS7003;36839;51.946;21.002;2023-02-12T00:56:07;5.50;5.00;3.00
50866;PMS7003;36839;51.946;21.002;2023-02-12T00:58:34;3.00;3.00;2.00
50866;PMS7003;36839;51.946;21.002;2023-02-12T01:01:01;5.00;5.00;4.00
50866;PMS7003;36839;51.946;21.002;2023-02-12T01:03:28;3.00;3.00;3.00
50866;PMS7003;36839;51.946;21.002;2023-02-12T01:05:56;3.00;3.00;2.67
50866;PMS7003;36839;51.946;21.002;2023-02-12T01:08:23;2.00;2.00;2.00
50866;PMS7003;36839;51.946;21.002;2023-02-12T01:10:54;4.50;4.00;4.00
50866;PMS7003;36839;51.946;21.002;2023-02-12T01:13:23;6.00;3.00;3.00
50866;PMS7003;36839;51.946;21.002;2023-02-12T01:16:00;5.00;3.00;2.00
50866;PMS7003;36839;51.946;21.002;2023-02-12T01:18:38;3.00;3.00;2.00
50866;PMS7003;36839;51.946;21.002;2023-02-12T01:21:13;2.00;2.00;2.00
50866;PMS7003;36839;51.946;21.002;2023-02-12T01:23:50;5.00;5.00;2.50
50866;PMS7003;36839;51.946;21.002;2023-02-12T01:26:18;3.00;3.00;2.00
50866;PMS7003;36839;51.946;21.002;2023-02-12T01:28:52;6.00;6.00;3.00
50866;PMS7003;36839;51.946;21.002;2023-02-12T01:31:28;5.00;3.00;2.00
50866;PMS7003;36839;51.946;21.002;2023-02-12T01:34:00;4.00;3.00;2.00
50866;PMS7003;36839;51.946;21.002;2023-02-12T01:36:30;2.50;2.50;2.00
50866;PMS7003;36839;51.946;21.002;2023-02-12T01:38:58;5.00;2.00;2.00
50866;PMS7003;36839;51.946;21.002;2023-02-12T01:41:32;10.00;2.00;2.00
50866;PMS7003;36839;51.946;21.002;2023-02-12T01:44:06;7.00;3.00;2.00
50866;PMS7003;36839;51.946;21.002;2023-02-12T01:46:35;5.00;2.00;2.00
50866;PMS7003;36839;51.946;21.002;2023-02-12T01:49:04;5.00;5.00;3.00
50866;PMS7003;36839;51.946;21.002;2023-02-12T01:51:35;4.50;3.00;2.00
50866;PMS7003;36839;51.946;21.002;2023-02-12T01:54:04;3.00;3.00;3.00
50866;PMS7003;36839;51.946;21.002;2023-02-12T01:56:35;2.00;2.00;2.00
50866;PMS7003;36839;51.946;21.002;2023-02-12T01:59:03;3.00;3.00;3.00
50866;PMS7003;36839;51.946;21.002;2023-02-12T02:01:31;3.00;1.00;1.00
50866;PMS7003;36839;51.946;21.002;2023-02-12T02:04:11;3.00;2.00;2.00
50866;PMS7003;36839;51.946;21.002;2023-02-12T02:07:11;2.00;2.00;2.00
50866;PMS7003;36839;51.946;21.002;2023-02-12T02:09:38;3.00;3.00;2.00
50866;PMS7003;36839;51.946;21.002;2023-02-12T02:12:06;5.00;2.00;2.00
50866;PMS7003;36839;51.946;21.002;2023-02-12T02:14:53;2.00;2.00;1.00
50866;PMS7003;36839;51.946;21.002;2023-02-12T02:40:09;2.00;1.00;1.00
50866;PMS7003;36839;51.946;21.002;2023-02-12T02:42:51;5.50;1.00;1.00
50866;PMS7003;36839;51.946;21.002;2023-02-12T02:45:26;2.00;2.00;2.00
50866;PMS7003;36839;51.946;21.002;2023-02-12T02:48:01;3.00;1.00;1.00
50866;PMS7003;36839;51.946;21.002;2023-02-12T02:53:24;2.00;2.00;2.00
50866;PMS7003;36839;51.946;21.002;2023-02-12T02:55:57;2.00;2.00;1.00
50866;PMS7003;36839;51.946;21.002;2023-02-12T03:01:05;6.50;4.00;2.00
50866;PMS7003;36839;51.946;21.002;2023-02-12T03:03:45;2.00;2.00;2.00
50866;PMS7003;36839;51.946;21.002;2023-02-12T03:06:24;3.00;1.50;1.50
50866;PMS7003;36839;51.946;21.002;2023-02-12T03:09:04;3.00;3.00;2.00
50866;PMS7003;36839;51.946;21.002;2023-02-12T03:11:39;3.00;3.00;2.00
50866;PMS7003;36839;51.946;21.002;2023-02-12T03:14:18;2.00;2.00;2.00
50866;PMS7003;36839;51.946;21.002;2023-02-12T03:17:01;2.00;2.00;2.00
50866;PMS7003;36839;51.946;21.002;2023-02-12T03:19:38;3.00;2.00;1.00
50866;PMS7003;36839;51.946;21.002;2023-02-12T03:22:17;2.00;2.00;2.00
50866;PMS7003;36839;51.946;21.002;2023-02-12T03:24:50;2.00;2.00;2.00
50866;PMS7003;36839;51.946;21.002;2023-02-12T03:27:31;2.00;2.00;1.00
50866;PMS7003;36839;51.946;21.002;2023-02-12T03:30:01;3.50;2.00;2.00
50866;PMS7003;36839;51.946;21.002;2023-02-12T03:32:34;3.00;3.00;2.00
50866;PMS7003;36839;51.946;21.002;2023-02-12T03:38:12;6.50;2.00;2.00
50866;PMS7003;36839;51.946;21.002;2023-02-12T03:41:01;6.00;3.00;3.00
50866;PMS7003;36839;51.946;21.002;2023-02-12T03:43:52;3.00;2.00;1.00
50866;PMS7003;36839;51.946;21.002;2023-02-12T03:46:40;2.00;2.00;2.00
50866;PMS7003;36839;51.946;21.002;2023-02-12T03:49:20;2.00;2.00;1.50
50866;PMS7003;36839;51.946;21.002;2023-02-12T03:51:52;1.00;1.00;1.00
50866;PMS7003;36839;51.946;21.002;2023-02-12T03:54:20;5.00;2.00;2.00
50866;PMS7003;36839;51.946;21.002;2023-02-12T03:56:50;3.00;2.00;2.00
50866;PMS7003;36839;51.946;21.002;2023-02-12T03:59:22;2.00;2.00;1.50
50866;PMS7003;36839;51.946;21.002;2023-02-12T04:01:51;1.00;1.00;1.00
50866;PMS7003;36839;51.946;21.002;2023-02-12T04:04:22;1.50;1.50;1.50
50866;PMS7003;36839;51.946;21.002;2023-02-12T04:06:51;2.00;1.00;1.00
50866;PMS7003;36839;51.946;21.002;2023-02-12T04:09:19;6.00;2.00;2.00
50866;PMS7003;36839;51.946;21.002;2023-02-12T04:12:00;2.00;1.00;1.00
50866;PMS7003;36839;51.946;21.002;2023-02-12T04:17:42;1.00;1.00;1.00
50866;PMS7003;36839;51.946;21.002;2023-02-12T04:23:49;1.00;1.00;1.00
50866;PMS7003;36839;51.946;21.002;2023-02-12T04:26:47;1.00;1.00;1.00
50866;PMS7003;36839;51.946;21.002;2023-02-12T04:29:25;2.00;2.00;2.00
50866;PMS7003;36839;51.946;21.002;2023-02-12T04:32:24;1.00;1.00;0.50
50866;PMS7003;36839;51.946;21.002;2023-02-12T04:35:11;3.00;1.00;1.00
50866;PMS7003;36839;51.946;21.002;2023-02-12T04:37:50;1.00;1.00;1.00
50866;PMS7003;36839;51.946;21.002;2023-02-12T04:40:30;3.50;2.50;2.00
50866;PMS7003;36839;51.946;21.002;2023-02-12T04:42:58;2.00;2.00;2.00
50866;PMS7003;36839;51.946;21.002;2023-02-12T04:45:25;5.00;1.00;1.00
50866;PMS7003;36839;51.946;21.002;2023-02-12T04:47:55;1.00;1.00;1.00
50866;PMS7003;36839;51.946;21.002;2023-02-12T04:50:22;2.00;2.00;1.50
50866;PMS7003;36839;51.946;21.002;2023-02-12T04:52:50;4.00;2.00;2.00
50866;PMS7003;36839;51.946;21.002;2023-02-12T04:55:18;3.00;3.00;2.00
50866;PMS7003;36839;51.946;21.002;2023-02-12T04:57:45;2.00;2.00;1.50
50866;PMS7003;36839;51.946;21.002;2023-02-12T05:00:15;2.50;2.50;2.00
50866;PMS7003;36839;51.946;21.002;2023-02-12T05:02:46;3.00;3.00;1.50
50866;PMS7003;36839;51.946;21.002;2023-02-12T05:05:14;3.00;3.00;2.00
50866;PMS7003;36839;51.946;21.002;2023-02-12T05:07:42;3.00;3.00;2.00
50866;PMS7003;36839;51.946;21.002;2023-02-12T05:10:10;3.00;3.00;2.00
50866;PMS7003;36839;51.946;21.002;2023-02-12T05:12:37;2.00;2.00;2.00
50866;PMS7003;36839;51.946;21.002;2023-02-12T05:15:04;3.00;3.00;2.00
50866;PMS7003;36839;51.946;21.002;2023-02-12T05:17:31;7.50;5.00;3.00
50866;PMS7003;36839;51.946;21.002;2023-02-12T05:19:58;5.50;4.00;2.50
50866;PMS7003;36839;51.946;21.002;2023-02-12T05:22:25;5.67;5.00;3.67
50866;PMS7003;36839;51.946;21.002;2023-02-12T05:24:52;3.00;3.00;3.00
50866;PMS7003;36839;51.946;21.002;2023-02-12T05:27:19;2.00;2.00;2.00
50866;PMS7003;36839;51.946;21.002;2023-02-12T05:29:47;5.00;5.00;5.00
50866;PMS7003;36839;51.946;21.002;2023-02-12T05:32:14;5.00;5.00;3.00
50866;PMS7003;36839;51.946;21.002;2023-02-12T05:34:41;3.00;3.00;3.00
50866;PMS7003;36839;51.946;21.002;2023-02-12T05:37:10;7.00;5.50;4.00
50866;PMS7003;36839;51.946;21.002;2023-02-12T05:39:37;5.00;5.00;3.00
50866;PMS7003;36839;51.946;21.002;2023-02-12T05:42:05;5.00;5.00;3.00
50866;PMS7003;36839;51.946;21.002;2023-02-12T05:44:32;5.50;5.50;4.00
50866;PMS7003;36839;51.946;21.002;2023-02-12T05:46:59;6.00;6.00;5.00
50866;PMS7003;36839;51.946;21.002;2023-02-12T05:49:26;9.00;6.00;5.00
50866;PMS7003;36839;51.946;21.002;2023-02-12T05:51:56;0.33;0.00;0.00
50866;PMS7003;36839;51.946;21.002;2023-02-12T05:54:23;7.00;5.00;3.00
50866;PMS7003;36839;51.946;21.002;2023-02-12T05:56:50;5.00;5.00;3.00
50866;PMS7003;36839;51.946;21.002;2023-02-12T05:59:18;5.00;3.00;3.00
50866;PMS7003;36839;51.946;21.002;2023-02-12T06:01:49;5.50;5.00;3.00
50866;PMS7003;36839;51.946;21.002;2023-02-12T06:04:20;5.50;5.00;4.00
50866;PMS7003;36839;51.946;21.002;2023-02-12T06:06:51;6.00;4.00;3.00
50866;PMS7003;36839;51.946;21.002;2023-02-12T06:09:21;7.00;5.00;3.00
50866;PMS7003;36839;51.946;21.002;2023-02-12T06:11:49;8.00;3.00;2.50
50866;PMS7003;36839;51.946;21.002;2023-02-12T06:14:18;3.00;3.00;3.00
50866;PMS7003;36839;51.946;21.002;2023-02-12T06:16:48;5.00;3.00;2.00
50866;PMS7003;36839;51.946;21.002;2023-02-12T06:19:18;2.50;2.50;2.00
50866;PMS7003;36839;51.946;21.002;2023-02-12T06:21:46;7.00;7.00;6.00
50866;PMS7003;36839;51.946;21.002;2023-02-12T06:24:14;5.50;5.50;5.00
50866;PMS7003;36839;51.946;21.002;2023-02-12T06:26:43;4.50;4.00;3.00
50866;PMS7003;36839;51.946;21.002;2023-02-12T06:29:10;6.00;5.00;3.00
50866;PMS7003;36839;51.946;21.002;2023-02-12T06:31:38;2.00;2.00;2.00
50866;PMS7003;36839;51.946;21.002;2023-02-12T06:34:07;5.00;5.00;3.00
50866;PMS7003;36839;51.946;21.002;2023-02-12T06:36:37;7.00;5.00;5.00
50866;PMS7003;36839;51.946;21.002;2023-02-12T06:39:07;3.00;3.00;2.00
50866;PMS7003;36839;51.946;21.002;2023-02-12T06:41:38;2.00;2.00;2.00
50866;PMS7003;36839;51.946;21.002;2023-02-12T06:44:06;5.50;3.00;2.50
50866;PMS7003;36839;51.946;21.002;2023-02-12T06:46:33;5.00;5.00;3.00
50866;PMS7003;36839;51.946;21.002;2023-02-12T06:49:00;5.00;3.00;2.00
50866;PMS7003;36839;51.946;21.002;2023-02-12T06:51:28;4.00;4.00;3.00
50866;PMS7003;36839;51.946;21.002;2023-02-12T06:53:55;5.50;5.50;4.00
50866;PMS7003;36839;51.946;21.002;2023-02-12T06:56:23;11.00;6.00;3.00
50866;PMS7003;36839;51.946;21.002;2023-02-12T06:58:53;10.00;6.00;5.00
50866;PMS7003;36839;51.946;21.002;2023-02-12T07:01:22;3.00;3.00;2.00
50866;PMS7003;36839;51.946;21.002;2023-02-12T07:03:55;5.00;5.00;3.00
50866;PMS7003;36839;51.946;21.002;2023-02-12T07:06:24;5.50;5.00;4.00
50866;PMS7003;36839;51.946;21.002;2023-02-12T07:08:52;7.00;5.50;4.00
50866;PMS7003;36839;51.946;21.002;2023-02-12T07:11:27;4.00;4.00;3.00
50866;PMS7003;36839;51.946;21.002;2023-02-12T07:13:57;8.00;8.00;7.00
50866;PMS7003;36839;51.946;21.002;2023-02-12T07:16:24;15.00;12.00;8.00
50866;PMS7003;36839;51.946;21.002;2023-02-12T07:18:52;14.00;12.00;8.00
50866;PMS7003;36839;51.946;21.002;2023-02-12T07:21:19;3.00;3.00;3.00
50866;PMS7003;36839;51.946;21.002;2023-02-12T07:23:47;7.00;5.00;3.00
50866;PMS7003;36839;51.946;21.002;2023-02-12T07:26:18;10.50;7.50;5.50
50866;PMS7003;36839;51.946;21.002;2023-02-12T07:28:46;8.00;7.00;5.00
50866;PMS7003;36839;51.946;21.002;2023-02-12T07:31:20;2.00;2.00;2.00
50866;PMS7003;36839;51.946;21.002;2023-02-12T07:33:54;5.00;5.00;3.00
50866;PMS7003;36839;51.946;21.002;2023-02-12T07:36:24;3.00;3.00;2.50
50866;PMS7003;36839;51.946;21.002;2023-02-12T07:38:52;3.00;3.00;3.00
50866;PMS7003;36839;51.946;21.002;2023-02-12T07:41:21;4.00;4.00;4.00
50866;PMS7003;36839;51.946;21.002;2023-02-12T07:43:55;5.00;5.00;5.00
50866;PMS7003;36839;51.946;21.002;2023-02-12T07:46:27;11.00;7.00;5.00
50866;PMS7003;36839;51.946;21.002;2023-02-12T07:48:58;5.00;5.00;3.00
50866;PMS7003;36839;51.946;21.002;2023-02-12T07:51:26;1.50;1.50;1.00
50866;PMS7003;36839;51.946;21.002;2023-02-12T07:53:53;2.00;2.00;2.00
50866;PMS7003;36839;51.946;21.002;2023-02-12T07:56:22;5.00;3.00;2.00
50866;PMS7003;36839;51.946;21.002;2023-02-12T07:58:52;2.50;2.50;2.00
50866;PMS7003;36839;51.946;21.002;2023-02-12T08:03:48;5.00;5.00;3.00
50866;PMS7003;36839;51.946;21.002;2023-02-12T08:06:17;2.00;2.00;2.00
50866;PMS7003;36839;51.946;21.002;2023-02-12T08:08:47;3.00;3.00;2.00
50866;PMS7003;36839;51.946;21.002;2023-02-12T08:11:17;3.00;3.00;3.00
50866;PMS7003;36839;51.946;21.002;2023-02-12T08:13:44;2.00;2.00;2.00
50866;PMS7003;36839;51.946;21.002;2023-02-12T08:16:12;2.50;2.50;2.00
50866;PMS7003;36839;51.946;21.002;2023-02-12T08:18:41;3.50;2.50;2.00
50866;PMS7003;36839;51.946;21.002;2023-02-12T08:21:12;5.00;3.00;2.00
50866;PMS7003;36839;51.946;21.002;2023-02-12T08:23:41;2.50;2.50;2.00
50866;PMS7003;36839;51.946;21.002;2023-02-12T08:28:44;5.00;3.00;2.00
50866;PMS7003;36839;51.946;21.002;2023-02-12T08:31:15;3.00;3.00;3.00
50866;PMS7003;36839;51.946;21.002;2023-02-12T08:33:47;3.00;3.00;2.00
50866;PMS7003;36839;51.946;21.002;2023-02-12T08:36:18;7.00;6.00;4.00
50866;PMS7003;36839;51.946;21.002;2023-02-12T08:38:47;6.50;6.00;4.50
50866;PMS7003;36839;51.946;21.002;2023-02-12T08:41:21;3.00;3.00;3.00
50866;PMS7003;36839;51.946;21.002;2023-02-12T08:43:51;3.00;3.00;3.00
50866;PMS7003;36839;51.946;21.002;2023-02-12T08:46:21;4.00;3.00;2.00
50866;PMS7003;36839;51.946;21.002;2023-02-12T08:48:54;7.00;5.00;5.00
50866;PMS7003;36839;51.946;21.002;2023-02-12T08:51:23;5.50;5.50;3.00
50866;PMS7003;36839;51.946;21.002;2023-02-12T08:53:54;4.50;4.50;3.00
50866;PMS7003;36839;51.946;21.002;2023-02-12T08:56:24;6.00;6.00;5.00
50866;PMS7003;36839;51.946;21.002;2023-02-12T08:58:53;6.00;5.50;5.00
50866;PMS7003;36839;51.946;21.002;2023-02-12T09:01:22;41.00;36.50;24.50
50866;PMS7003;36839;51.946;21.002;2023-02-12T09:03:51;48.50;32.50;24.50
50866;PMS7003;36839;51.946;21.002;2023-02-12T09:06:20;18.00;18.00;13.50
50866;PMS7003;36839;51.946;21.002;2023-02-12T09:08:48;7.33;6.33;5.67
50866;PMS7003;36839;51.946;21.002;2023-02-12T09:11:17;8.00;8.00;6.00
50866;PMS7003;36839;51.946;21.002;2023-02-12T09:13:49;6.00;6.00;5.00
50866;PMS7003;36839;51.946;21.002;2023-02-12T09:16:16;7.00;7.00;5.50
50866;PMS7003;36839;51.946;21.002;2023-02-12T09:18:43;41.50;39.00;28.50
50866;PMS7003;36839;51.946;21.002;2023-02-12T09:21:12;25.00;19.00;13.00
50866;PMS7003;36839;51.946;21.002;2023-02-12T09:23:42;13.50;12.00;10.00
50866;PMS7003;36839;51.946;21.002;2023-02-12T09:26:11;7.00;7.00;4.50
50866;PMS7003;36839;51.946;21.002;2023-02-12T09:28:42;10.00;8.00;6.33
50866;PMS7003;36839;51.946;21.002;2023-02-12T09:31:12;12.00;8.00;6.00
50866;PMS7003;36839;51.946;21.002;2023-02-12T09:36:14;12.00;12.00;7.00
50866;PMS7003;36839;51.946;21.002;2023-02-12T09:38:43;9.50;8.00;7.00
50866;PMS7003;36839;51.946;21.002;2023-02-12T09:47:07;12.50;9.00;6.50
50866;PMS7003;36839;51.946;21.002;2023-02-12T09:49:53;23.00;18.00;13.00
50866;PMS7003;36839;51.946;21.002;2023-02-12T09:52:43;75.00;57.00;35.00
50866;PMS7003;36839;51.946;21.002;2023-02-12T09:55:13;33.00;31.00;19.00
50866;PMS7003;36839;51.946;21.002;2023-02-12T09:57:41;15.00;11.50;8.00
50866;PMS7003;36839;51.946;21.002;2023-02-12T10:00:13;7.00;7.00;7.00
50866;PMS7003;36839;51.946;21.002;2023-02-12T10:03:02;11.50;11.50;10.50
50866;PMS7003;36839;51.946;21.002;2023-02-12T10:05:39;11.00;8.50;6.00
50866;PMS7003;36839;51.946;21.002;2023-02-12T10:13:50;8.00;8.00;6.50
50866;PMS7003;36839;51.946;21.002;2023-02-12T10:22:06;17.00;17.00;13.00
50866;PMS7003;36839;51.946;21.002;2023-02-12T10:33:04;12.00;8.00;7.00
50866;PMS7003;36839;51.946;21.002;2023-02-12T10:35:43;12.00;9.00;7.00
50866;PMS7003;36839;51.946;21.002;2023-02-12T10:38:20;7.00;7.00;6.00
50866;PMS7003;36839;51.946;21.002;2023-02-12T10:40:52;11.00;11.00;8.00
50866;PMS7003;36839;51.946;21.002;2023-02-12T10:43:23;8.00;8.00;6.00
50866;PMS7003;36839;51.946;21.002;2023-02-12T10:45:53;9.00;8.00;7.00
50866;PMS7003;36839;51.946;21.002;2023-02-12T10:48:25;11.00;10.00;8.00
50866;PMS7003;36839;51.946;21.002;2023-02-12T10:53:34;13.00;13.00;8.00
50866;PMS7003;36839;51.946;21.002;2023-02-12T11:03:47;25.50;21.00;14.00
50866;PMS7003;36839;51.946;21.002;2023-02-12T11:06:19;25.50;21.00;13.00
50866;PMS7003;36839;51.946;21.002;2023-02-12T11:08:54;6.00;6.00;6.00
50866;PMS7003;36839;51.946;21.002;2023-02-12T11:11:27;11.50;9.00;7.00
50866;PMS7003;36839;51.946;21.002;2023-02-12T11:14:17;12.00;11.00;8.00
50866;PMS7003;36839;51.946;21.002;2023-02-12T11:16:52;8.00;8.00;7.00
50866;PMS7003;36839;51.946;21.002;2023-02-12T11:19:27;8.50;8.00;6.00
50866;PMS7003;36839;51.946;21.002;2023-02-12T11:22:09;7.00;7.00;7.00
50866;PMS7003;36839;51.946;21.002;2023-02-12T11:24:45;17.00;15.00;9.00
50866;PMS7003;36839;51.946;21.002;2023-02-12T11:27:25;13.00;13.00;9.00
50866;PMS7003;36839;51.946;21.002;2023-02-12T11:38:46;14.00;13.00;9.00
50866;PMS7003;36839;51.946;21.002;2023-02-12T11:41:24;18.00;16.00;12.00
50866;PMS7003;36839;51.946;21.002;2023-02-12T11:44:24;12.00;12.00;8.00
50866;PMS7003;36839;51.946;21.002;2023-02-12T11:47:04;10.00;8.00;6.00
50866;PMS7003;36839;51.946;21.002;2023-02-12T11:52:16;12.00;9.00;7.00
50866;PMS7003;36839;51.946;21.002;2023-02-12T11:54:52;13.00;10.00;9.00
50866;PMS7003;36839;51.946;21.002;2023-02-12T11:57:34;10.00;9.00;8.00
50866;PMS7003;36839;51.946;21.002;2023-02-12T12:00:16;9.00;7.00;7.00
50866;PMS7003;36839;51.946;21.002;2023-02-12T12:02:49;10.00;10.00;8.00
50866;PMS7003;36839;51.946;21.002;2023-02-12T12:05:20;16.00;13.00;9.00
50866;PMS7003;36839;51.946;21.002;2023-02-12T12:07:57;12.00;10.00;8.00
50866;PMS7003;36839;51.946;21.002;2023-02-12T12:10:40;9.00;7.00;7.00
50866;PMS7003;36839;51.946;21.002;2023-02-12T12:13:22;9.00;8.00;6.00
50866;PMS7003;36839;51.946;21.002;2023-02-12T12:16:03;8.00;8.00;6.00
50866;PMS7003;36839;51.946;21.002;2023-02-12T12:18:57;7.00;7.00;6.00
50866;PMS7003;36839;51.946;21.002;2023-02-12T12:22:22;13.00;8.00;7.00
50866;PMS7003;36839;51.946;21.002;2023-02-12T12:33:11;6.50;6.00;4.00
50866;PMS7003;36839;51.946;21.002;2023-02-12T12:36:23;12.00;8.00;7.00
50866;PMS7003;36839;51.946;21.002;2023-02-12T12:39:31;6.50;6.00;4.00
50866;PMS7003;36839;51.946;21.002;2023-02-12T12:45:02;9.00;7.00;5.00
50866;PMS7003;36839;51.946;21.002;2023-02-12T12:59:36;8.50;7.00;5.00
50866;PMS7003;36839;51.946;21.002;2023-02-12T13:10:54;15.00;11.00;7.00
50866;PMS7003;36839;51.946;21.002;2023-02-12T13:13:45;14.00;12.00;10.00
50866;PMS7003;36839;51.946;21.002;2023-02-12T13:16:28;20.00;15.00;10.50
50866;PMS7003;36839;51.946;21.002;2023-02-12T13:27:17;14.33;12.00;8.33
50866;PMS7003;36839;51.946;21.002;2023-02-12T13:30:16;8.50;8.00;6.50
50866;PMS7003;36839;51.946;21.002;2023-02-12T13:35:31;16.00;13.50;10.00
50866;PMS7003;36839;51.946;21.002;2023-02-12T13:38:07;14.00;10.00;8.50
50866;PMS7003;36839;51.946;21.002;2023-02-12T13:40:46;21.00;15.00;12.00
50866;PMS7003;36839;51.946;21.002;2023-02-12T13:43:30;15.00;15.00;10.00
50866;PMS7003;36839;51.946;21.002;2023-02-12T13:46:21;13.00;13.00;10.00
50866;PMS7003;36839;51.946;21.002;2023-02-12T13:49:12;25.50;21.00;13.50
50866;PMS7003;36839;51.946;21.002;2023-02-12T13:52:07;21.50;20.00;12.50
50866;PMS7003;36839;51.946;21.002;2023-02-12T14:03:42;21.50;15.50;9.50
50866;PMS7003;36839;51.946;21.002;2023-02-12T14:06:14;31.00;24.00;16.00
50866;PMS7003;36839;51.946;21.002;2023-02-12T14:09:06;18.00;15.00;12.00
50866;PMS7003;36839;51.946;21.002;2023-02-12T14:11:54;13.50;12.50;9.00
50866;PMS7003;36839;51.946;21.002;2023-02-12T14:14:27;24.00;24.00;16.00
50866;PMS7003;36839;51.946;21.002;2023-02-12T14:31:33;82.00;59.00;35.50
50866;PMS7003;36839;51.946;21.002;2023-02-12T14:36:39;61.00;47.00;31.00
50866;PMS7003;36839;51.946;21.002;2023-02-12T14:41:48;40.00;36.50;24.50
50866;PMS7003;36839;51.946;21.002;2023-02-12T14:49:35;48.00;36.00;25.00
50866;PMS7003;36839;51.946;21.002;2023-02-12T14:57:26;29.00;25.00;20.00
50866;PMS7003;36839;51.946;21.002;2023-02-12T15:00:20;35.00;29.00;20.00
50866;PMS7003;36839;51.946;21.002;2023-02-12T15:08:29;21.00;18.00;14.00
50866;PMS7003;36839;51.946;21.002;2023-02-12T15:11:07;21.00;15.00;10.00
50866;PMS7003;36839;51.946;21.002;2023-02-12T15:16:32;17.00;17.00;12.00
50866;PMS7003;36839;51.946;21.002;2023-02-12T15:21:49;35.00;27.50;21.50
50866;PMS7003;36839;51.946;21.002;2023-02-12T15:24:22;41.00;37.00;24.00
50866;PMS7003;36839;51.946;21.002;2023-02-12T15:26:52;45.50;37.00;23.00
50866;PMS7003;36839;51.946;21.002;2023-02-12T15:29:25;29.00;27.50;18.50
50866;PMS7003;36839;51.946;21.002;2023-02-12T15:32:26;26.00;24.00;14.00
50866;PMS7003;36839;51.946;21.002;2023-02-12T15:34:57;42.00;36.50;24.50
50866;PMS7003;36839;51.946;21.002;2023-02-12T15:37:29;34.00;32.00;20.00
50866;PMS7003;36839;51.946;21.002;2023-02-12T15:40:05;33.00;26.00;18.00
50866;PMS7003;36839;51.946;21.002;2023-02-12T15:42:50;27.50;26.00;17.00
50866;PMS7003;36839;51.946;21.002;2023-02-12T15:45:23;23.00;18.50;13.50
50866;PMS7003;36839;51.946;21.002;2023-02-12T15:48:15;22.00;18.00;11.00
50866;PMS7003;36839;51.946;21.002;2023-02-12T15:50:53;21.00;18.00;13.00
50866;PMS7003;36839;51.946;21.002;2023-02-12T15:53:32;17.50;17.00;13.00
50866;PMS7003;36839;51.946;21.002;2023-02-12T15:56:04;22.50;22.50;15.00
50866;PMS7003;36839;51.946;21.002;2023-02-12T15:58:45;20.50;20.50;12.50
50866;PMS7003;36839;51.946;21.002;2023-02-12T16:01:16;28.00;23.00;16.00
50866;PMS7003;36839;51.946;21.002;2023-02-12T16:03:50;24.00;18.00;12.00
50866;PMS7003;36839;51.946;21.002;2023-02-12T16:06:26;25.00;21.50;14.50
50866;PMS7003;36839;51.946;21.002;2023-02-12T16:09:07;26.00;18.00;12.00
50866;PMS7003;36839;51.946;21.002;2023-02-12T16:11:45;16.00;12.00;7.00
50866;PMS7003;36839;51.946;21.002;2023-02-12T16:14:19;16.00;13.00;10.00
50866;PMS7003;36839;51.946;21.002;2023-02-12T16:17:27;16.00;14.50;11.00
50866;PMS7003;36839;51.946;21.002;2023-02-12T16:25:26;17.50;17.50;12.00
50866;PMS7003;36839;51.946;21.002;2023-02-12T16:28:02;23.00;22.00;14.00
50866;PMS7003;36839;51.946;21.002;2023-02-12T16:30:35;16.00;14.50;10.00
50866;PMS7003;36839;51.946;21.002;2023-02-12T16:33:33;20.00;15.00;12.00
50866;PMS7003;36839;51.946;21.002;2023-02-12T16:41:50;22.00;19.00;15.00
50866;PMS7003;36839;51.946;21.002;2023-02-12T16:44:24;25.50;20.50;15.50
50866;PMS7003;36839;51.946;21.002;2023-02-12T16:46:55;30.00;25.00;19.00
50866;PMS7003;36839;51.946;21.002;2023-02-12T16:49:26;38.00;33.00;25.00
50866;PMS7003;36839;51.946;21.002;2023-02-12T16:52:17;39.00;34.00;21.50
50866;PMS7003;36839;51.946;21.002;2023-02-12T16:54:52;30.00;29.00;20.00
50866;PMS7003;36839;51.946;21.002;2023-02-12T16:57:22;39.00;31.00;20.00
50866;PMS7003;36839;51.946;21.002;2023-02-12T16:59:51;40.00;30.50;21.00
50866;PMS7003;36839;51.946;21.002;2023-02-12T17:02:19;30.00;26.00;17.00
50866;PMS7003;36839;51.946;21.002;2023-02-12T17:04:48;30.50;28.50;21.50
50866;PMS7003;36839;51.946;21.002;2023-02-12T17:07:25;49.33;39.00;27.33
50866;PMS7003;36839;51.946;21.002;2023-02-12T17:09:56;40.00;34.00;23.00
50866;PMS7003;36839;51.946;21.002;2023-02-12T17:12:24;56.50;42.00;29.00
50866;PMS7003;36839;51.946;21.002;2023-02-12T17:14:55;41.00;38.00;25.00
50866;PMS7003;36839;51.946;21.002;2023-02-12T17:17:26;42.00;32.00;25.00
50866;PMS7003;36839;51.946;21.002;2023-02-12T17:19:55;32.00;23.00;21.00
50866;PMS7003;36839;51.946;21.002;2023-02-12T17:22:31;45.00;38.00;22.00
50866;PMS7003;36839;51.946;21.002;2023-02-12T17:25:02;41.00;36.00;25.00
50866;PMS7003;36839;51.946;21.002;2023-02-12T17:30:01;51.00;41.00;27.00
50866;PMS7003;36839;51.946;21.002;2023-02-12T17:32:32;69.00;50.00;31.00
50866;PMS7003;36839;51.946;21.002;2023-02-12T17:35:00;59.50;46.00;28.50
50866;PMS7003;36839;51.946;21.002;2023-02-12T17:37:28;68.00;51.00;33.00
50866;PMS7003;36839;51.946;21.002;2023-02-12T17:39:57;60.50;43.50;27.50
50866;PMS7003;36839;51.946;21.002;2023-02-12T17:42:25;56.00;44.00;29.50
50866;PMS7003;36839;51.946;21.002;2023-02-12T17:44:55;60.00;49.00;31.50
50866;PMS7003;36839;51.946;21.002;2023-02-12T17:47:25;56.00;44.50;30.00
50866;PMS7003;36839;51.946;21.002;2023-02-12T17:49:54;56.00;44.00;27.00
50866;PMS7003;36839;51.946;21.002;2023-02-12T17:52:35;70.00;55.00;35.00
50866;PMS7003;36839;51.946;21.002;2023-02-12T17:55:06;90.00;66.00;41.00